Time;durP1;ratioP1;P1;durP2;ratioP2;P2;SDS_P1;SDS_P2;PMS_P1;PMS_P2;Temp;Humidity;BMP_temperature;BMP_pressure;BME280_temperature;BME280_humidity;BME280_pressure;Samples;Min_cycle;Max_cycle;Signal;HPM_P1;HPM_P2
2021/06/06 00:01:49;;;;;;;7.20;5.78;;;19.00;99.90;;;;;;5006364;28;20291;-66
2021/06/06 00:04:18;;;;;;;7.03;6.00;;;19.00;99.90;;;;;;5006161;28;20721;-68
2021/06/06 00:06:44;;;;;;;6.22;5.43;;;19.00;99.90;;;;;;5007381;28;20643;-67
2021/06/06 00:09:16;;;;;;;6.38;5.32;;;19.00;99.90;;;;;;5006929;28;20210;-67
2021/06/06 00:11:45;;;;;;;7.70;6.57;;;19.00;99.90;;;;;;5006941;28;20180;-67
2021/06/06 00:14:14;;;;;;;7.30;5.82;;;19.00;99.90;;;;;;5006988;28;20647;-68
2021/06/06 00:16:45;;;;;;;7.72;6.55;;;19.00;99.90;;;;;;5007033;28;20282;-68
2021/06/06 00:19:12;;;;;;;7.65;6.70;;;19.00;99.90;;;;;;5006730;28;20730;-67
2021/06/06 00:21:40;;;;;;;6.63;5.70;;;18.90;99.90;;;;;;5006090;28;20307;-67
2021/06/06 00:24:07;;;;;;;7.00;6.30;;;18.90;99.90;;;;;;5006773;28;20207;-68
2021/06/06 00:26:34;;;;;;;7.07;5.53;;;18.90;99.90;;;;;;5007138;28;20532;-68
2021/06/06 00:29:00;;;;;;;8.38;6.03;;;18.80;99.90;;;;;;5006506;28;20206;-67
2021/06/06 00:31:25;;;;;;;5.65;5.03;;;18.80;99.90;;;;;;5006318;28;20175;-67
2021/06/06 00:33:52;;;;;;;5.63;5.13;;;18.80;99.90;;;;;;5005222;28;20199;-67
2021/06/06 00:36:20;;;;;;;6.22;5.63;;;18.70;99.90;;;;;;5006627;28;20179;-68
2021/06/06 00:38:46;;;;;;;6.43;5.82;;;18.70;99.90;;;;;;5006502;28;20290;-67
2021/06/06 00:41:13;;;;;;;6.18;5.57;;;18.70;99.90;;;;;;5020735;28;20270;-69
2021/06/06 00:43:39;;;;;;;6.22;5.63;;;18.80;99.90;;;;;;5006564;28;20689;-67
2021/06/06 00:46:06;;;;;;;6.85;5.90;;;18.80;99.90;;;;;;5006731;28;20203;-67
2021/06/06 00:48:32;;;;;;;8.02;5.90;;;18.80;99.90;;;;;;5005950;28;20203;-66
2021/06/06 00:51:01;;;;;;;7.65;5.40;;;18.80;99.90;;;;;;5005832;28;20258;-68
2021/06/06 00:53:40;;;;;;;6.45;5.68;;;18.80;99.90;;;;;;5006942;28;20229;-67
2021/06/06 00:56:12;;;;;;;6.57;5.38;;;18.80;99.90;;;;;;5006580;28;20188;-68
2021/06/06 00:58:38;;;;;;;5.85;5.15;;;18.80;99.90;;;;;;5005615;28;20693;-68
2021/06/06 01:01:04;;;;;;;9.20;5.70;;;18.80;99.90;;;;;;5005964;28;20179;-67
2021/06/06 01:03:30;;;;;;;6.43;5.28;;;18.80;99.90;;;;;;5005914;28;20211;-67
2021/06/06 01:06:06;;;;;;;6.00;5.40;;;18.70;99.90;;;;;;5006315;28;20179;-68
2021/06/06 01:08:33;;;;;;;6.70;6.05;;;18.70;99.90;;;;;;5005603;28;20195;-67
2021/06/06 01:11:36;;;;;;;6.90;5.75;;;18.70;99.90;;;;;;5005780;28;20291;-68
2021/06/06 01:14:10;;;;;;;7.88;6.65;;;18.70;99.90;;;;;;5005959;28;20553;-68
2021/06/06 01:16:51;;;;;;;6.70;5.97;;;18.70;99.90;;;;;;5005584;28;20248;-70
2021/06/06 01:19:33;;;;;;;6.00;5.40;;;18.70;99.90;;;;;;5005268;28;20214;-68
2021/06/06 01:22:22;;;;;;;7.43;5.93;;;18.70;99.90;;;;;;5004697;28;20186;-67
2021/06/06 01:24:51;;;;;;;8.98;5.72;;;18.70;99.90;;;;;;5006053;28;20203;-68
2021/06/06 01:27:23;;;;;;;6.20;5.50;;;18.60;99.90;;;;;;5005208;28;20172;-68
2021/06/06 01:30:10;;;;;;;8.63;5.95;;;18.60;99.90;;;;;;5020252;28;20237;-68
2021/06/06 01:32:40;;;;;;;6.32;5.50;;;18.70;99.90;;;;;;5004813;28;20233;-66
2021/06/06 01:35:15;;;;;;;6.40;5.30;;;18.60;99.90;;;;;;5005753;28;20672;-68
2021/06/06 01:37:52;;;;;;;8.10;6.60;;;18.50;99.90;;;;;;5005268;28;20587;-67
2021/06/06 01:40:23;;;;;;;6.53;5.70;;;18.60;99.90;;;;;;5006137;28;20203;-67
2021/06/06 01:42:53;;;;;;;8.90;6.25;;;18.60;99.90;;;;;;5004647;28;20207;-67
2021/06/06 01:45:32;;;;;;;7.95;6.55;;;18.60;99.90;;;;;;5005867;28;20194;-67
2021/06/06 01:48:02;;;;;;;6.90;5.85;;;18.60;99.90;;;;;;5004906;28;20567;-68
2021/06/06 01:50:37;;;;;;;7.80;6.68;;;18.60;99.90;;;;;;5005766;28;20186;-67
2021/06/06 01:53:06;;;;;;;7.50;5.68;;;18.50;99.90;;;;;;5004741;28;20182;-68
2021/06/06 01:55:36;;;;;;;7.60;6.68;;;18.50;99.90;;;;;;5004262;28;20196;-67
2021/06/06 01:58:04;;;;;;;7.88;6.80;;;18.50;99.90;;;;;;5005083;28;20647;-68
2021/06/06 02:00:43;;;;;;;7.55;6.47;;;18.50;99.90;;;;;;5005916;28;20294;-68
2021/06/06 02:03:09;;;;;;;8.90;7.07;;;18.50;99.90;;;;;;5004982;28;20213;-68
2021/06/06 02:05:34;;;;;;;8.55;6.97;;;18.50;99.90;;;;;;5006096;28;20184;-68
2021/06/06 02:08:03;;;;;;;9.48;7.07;;;18.50;99.90;;;;;;5004818;28;20195;-68
2021/06/06 02:10:44;;;;;;;7.93;7.13;;;18.60;99.90;;;;;;5005228;28;20262;-67
2021/06/06 02:13:17;;;;;;;7.47;6.47;;;18.60;99.90;;;;;;5004554;28;20727;-68
2021/06/06 02:15:43;;;;;;;8.63;7.55;;;18.60;99.90;;;;;;5005415;28;20188;-68
2021/06/06 02:18:10;;;;;;;8.30;7.28;;;18.70;99.90;;;;;;5004940;28;20183;-67
2021/06/06 02:20:42;;;;;;;10.50;7.72;;;18.70;99.90;;;;;;5005783;28;20273;-67
2021/06/06 02:23:09;;;;;;;9.63;7.53;;;18.70;99.90;;;;;;5005037;28;20195;-67
2021/06/06 02:25:37;;;;;;;9.93;8.40;;;18.70;99.90;;;;;;5005754;28;20184;-68
2021/06/06 02:28:21;;;;;;;10.70;8.10;;;18.70;99.90;;;;;;5007730;28;20218;-67
2021/06/06 02:30:58;;;;;;;12.27;9.45;;;18.70;99.90;;;;;;5007346;28;20182;-67
2021/06/06 02:33:31;;;;;;;11.35;8.80;;;18.80;99.90;;;;;;5009100;28;20183;-67
2021/06/06 02:36:01;;;;;;;11.07;9.30;;;18.80;99.90;;;;;;5009166;28;20242;-68
2021/06/06 02:38:50;;;;;;;11.77;9.52;;;18.80;99.90;;;;;;5008709;28;20282;-67
2021/06/06 02:41:21;;;;;;;12.65;9.75;;;18.80;99.90;;;;;;5008286;28;20278;-68
2021/06/06 02:43:56;;;;;;;15.52;10.27;;;18.80;99.90;;;;;;5008933;28;20199;-68
2021/06/06 02:46:24;;;;;;;12.18;9.55;;;18.90;99.90;;;;;;5008740;28;20586;-66
2021/06/06 02:49:24;;;;;;;13.30;9.98;;;18.80;99.90;;;;;;5008664;28;20640;-68
2021/06/06 02:51:59;;;;;;;13.23;9.93;;;18.80;99.90;;;;;;4985762;28;20187;-67
2021/06/06 02:54:31;;;;;;;10.80;8.32;;;18.80;99.90;;;;;;5008630;28;20228;-68
2021/06/06 02:57:06;;;;;;;14.90;9.93;;;18.80;99.90;;;;;;5008199;28;20707;-66
2021/06/06 02:59:44;;;;;;;14.40;10.38;;;18.90;99.90;;;;;;5008582;28;20226;-66
2021/06/06 03:02:14;;;;;;;15.77;10.23;;;18.90;99.90;;;;;;5007100;28;20194;-67
2021/06/06 03:04:46;;;;;;;12.02;9.82;;;18.80;99.90;;;;;;5008759;28;20186;-67
2021/06/06 03:07:22;;;;;;;12.05;9.77;;;18.80;99.90;;;;;;5008124;28;20241;-66
2021/06/06 03:09:47;;;;;;;13.13;9.38;;;18.80;99.90;;;;;;5008932;28;20199;-67
2021/06/06 03:12:16;;;;;;;12.32;9.23;;;18.80;99.90;;;;;;5007579;28;20187;-67
2021/06/06 03:14:44;;;;;;;10.52;9.20;;;18.80;99.90;;;;;;5008471;28;20171;-67
2021/06/06 03:17:38;;;;;;;12.23;9.18;;;18.80;99.90;;;;;;5007015;28;20186;-67
2021/06/06 03:20:13;;;;;;;11.90;8.82;;;18.70;99.90;;;;;;5006041;28;20260;-68
2021/06/06 03:22:41;;;;;;;11.60;8.40;;;18.70;99.90;;;;;;5006954;28;20302;-66
2021/06/06 03:25:18;;;;;;;10.75;9.10;;;18.70;99.90;;;;;;5007688;28;20180;-68
2021/06/06 03:27:45;;;;;;;12.18;9.00;;;18.80;99.90;;;;;;5006337;28;20175;-66
2021/06/06 03:30:36;;;;;;;12.32;8.93;;;18.70;99.90;;;;;;5006153;28;20210;-67
2021/06/06 03:33:08;;;;;;;11.75;8.77;;;18.70;99.90;;;;;;5000614;28;20400;-68
2021/06/06 03:35:34;;;;;;;11.20;8.95;;;18.70;99.90;;;;;;5007304;28;20269;-69
2021/06/06 03:38:00;;;;;;;11.25;8.77;;;18.80;99.90;;;;;;5006543;28;20183;-68
2021/06/06 03:40:28;;;;;;;11.23;9.23;;;18.70;99.90;;;;;;5007381;28;20195;-67
2021/06/06 03:42:54;;;;;;;13.38;9.30;;;18.70;99.90;;;;;;5005949;28;20285;-68
2021/06/06 03:45:20;;;;;;;12.63;8.90;;;18.60;99.90;;;;;;5007068;28;20754;-67
2021/06/06 03:47:46;;;;;;;11.27;8.43;;;18.60;99.90;;;;;;5006450;28;20258;-68
2021/06/06 03:50:14;;;;;;;9.75;8.27;;;18.60;99.90;;;;;;5007001;28;20200;-68
2021/06/06 03:52:40;;;;;;;12.15;9.30;;;18.60;99.90;;;;;;5004821;28;20900;-68
2021/06/06 03:55:11;;;;;;;10.30;8.43;;;18.70;99.90;;;;;;5006900;28;20186;-67
2021/06/06 03:57:38;;;;;;;10.50;8.25;;;18.70;99.90;;;;;;5006364;28;20198;-66
2021/06/06 04:00:20;;;;;;;11.85;8.45;;;18.60;99.90;;;;;;5006737;28;20207;-66
2021/06/06 04:02:46;;;;;;;13.20;8.98;;;18.50;99.90;;;;;;5005450;28;20206;-65
2021/06/06 04:05:13;;;;;;;12.75;8.43;;;18.60;99.90;;;;;;5005534;28;20175;-64
2021/06/06 04:07:38;;;;;;;13.50;8.15;;;18.60;99.90;;;;;;5006284;28;20663;-65
2021/06/06 04:10:05;;;;;;;11.13;7.70;;;18.60;99.90;;;;;;5006541;28;20207;-67
2021/06/06 04:12:30;;;;;;;10.35;8.52;;;18.60;99.90;;;;;;5005705;28;20545;-65
2021/06/06 04:14:56;;;;;;;9.13;7.38;;;18.60;99.90;;;;;;5006620;28;20213;-64
2021/06/06 04:17:22;;;;;;;10.52;8.57;;;18.50;99.90;;;;;;5006149;28;20203;-66
2021/06/06 04:19:48;;;;;;;9.55;7.95;;;18.50;99.90;;;;;;5006397;28;20572;-66
2021/06/06 04:22:13;;;;;;;10.77;8.10;;;18.50;99.90;;;;;;5005719;28;20192;-65
2021/06/06 04:24:39;;;;;;;12.68;9.38;;;18.40;99.90;;;;;;5006350;28;20184;-65
2021/06/06 04:27:05;;;;;;;10.27;7.65;;;18.40;99.90;;;;;;5005992;28;20651;-66
2021/06/06 04:29:31;;;;;;;11.63;8.45;;;18.40;99.90;;;;;;5006228;28;20195;-67
2021/06/06 04:31:56;;;;;;;13.45;9.35;;;18.40;99.90;;;;;;5005308;28;20221;-67
2021/06/06 04:34:22;;;;;;;10.65;8.73;;;18.50;99.90;;;;;;5006381;28;20179;-66
2021/06/06 04:36:49;;;;;;;12.02;8.85;;;18.50;99.90;;;;;;5005596;28;20547;-67
2021/06/06 04:39:16;;;;;;;11.95;8.25;;;18.50;99.90;;;;;;5005867;28;20302;-66
2021/06/06 04:41:42;;;;;;;12.70;8.75;;;18.50;99.90;;;;;;5004236;28;20548;-65
2021/06/06 04:44:08;;;;;;;14.45;9.15;;;18.40;99.90;;;;;;5005652;28;20269;-65
2021/06/06 04:46:34;;;;;;;13.02;9.43;;;18.50;99.90;;;;;;5005783;28;20203;-65
2021/06/06 04:48:59;;;;;;;12.40;9.38;;;18.50;99.90;;;;;;5005086;28;20281;-65
2021/06/06 04:51:25;;;;;;;14.30;9.60;;;18.50;99.90;;;;;;5004897;28;20542;-65
2021/06/06 04:53:52;;;;;;;13.63;9.95;;;18.50;99.90;;;;;;5005874;28;20186;-66
2021/06/06 04:56:20;;;;;;;14.50;10.07;;;18.40;99.90;;;;;;5004841;28;20562;-67
2021/06/06 04:58:46;;;;;;;13.63;10.07;;;18.40;99.90;;;;;;5004232;28;20207;-66
2021/06/06 05:01:13;;;;;;;13.68;9.65;;;18.40;99.90;;;;;;5005049;28;20187;-65
2021/06/06 05:03:39;;;;;;;14.70;10.57;;;18.40;99.90;;;;;;5005210;28;20573;-67
2021/06/06 05:06:05;;;;;;;13.02;9.98;;;18.40;99.90;;;;;;5005531;28;20184;-65
2021/06/06 05:08:32;;;;;;;14.23;10.13;;;18.40;99.90;;;;;;5005273;28;20204;-68
2021/06/06 05:10:57;;;;;;;13.30;9.98;;;18.50;99.90;;;;;;5005015;28;20187;-68
2021/06/06 05:13:23;;;;;;;14.50;10.13;;;18.50;99.90;;;;;;5005708;28;20191;-66
2021/06/06 05:15:51;;;;;;;17.13;11.23;;;18.40;99.90;;;;;;5005425;28;20188;-69
2021/06/06 05:18:18;;;;;;;13.45;9.70;;;18.50;99.90;;;;;;5004858;28;20216;-66
2021/06/06 05:20:46;;;;;;;14.82;10.07;;;18.40;99.90;;;;;;5004794;28;20207;-68
2021/06/06 05:23:13;;;;;;;15.98;9.90;;;18.50;99.90;;;;;;5004139;28;20290;-67
2021/06/06 05:25:41;;;;;;;14.35;10.05;;;18.50;99.90;;;;;;5005531;28;20192;-64
2021/06/06 05:28:09;;;;;;;14.43;9.93;;;18.60;99.90;;;;;;5004726;28;20274;-67
2021/06/06 05:30:37;;;;;;;15.63;10.98;;;18.70;99.90;;;;;;5005313;28;20238;-68
2021/06/06 05:33:04;;;;;;;16.17;10.88;;;18.70;99.90;;;;;;5004160;28;20597;-68
2021/06/06 05:35:32;;;;;;;15.70;10.95;;;18.70;99.90;;;;;;5005232;28;20197;-65
2021/06/06 05:37:59;;;;;;;13.68;9.77;;;18.70;99.90;;;;;;5004612;28;20195;-66
2021/06/06 05:40:27;;;;;;;16.33;11.25;;;18.80;99.90;;;;;;5005062;28;20179;-67
2021/06/06 05:42:53;;;;;;;16.02;10.52;;;18.90;99.90;;;;;;5002231;28;20253;-66
2021/06/06 05:45:22;;;;;;;18.52;11.88;;;19.00;99.90;;;;;;5005053;28;20195;-65
2021/06/06 05:47:48;;;;;;;17.23;11.05;;;19.10;99.90;;;;;;5004318;28;20707;-68
2021/06/06 05:50:18;;;;;;;15.80;10.25;;;19.00;99.90;;;;;;5004751;28;20265;-68
2021/06/06 05:52:44;;;;;;;17.88;11.68;;;19.10;99.90;;;;;;5003664;28;20234;-66
2021/06/06 05:55:10;;;;;;;15.10;10.77;;;19.20;99.90;;;;;;5005134;28;20598;-66
2021/06/06 05:57:36;;;;;;;17.05;10.07;;;19.10;99.90;;;;;;5003845;28;20198;-69
2021/06/06 06:00:08;;;;;;;18.48;10.70;;;19.10;99.90;;;;;;5004794;28;20659;-66
2021/06/06 06:02:33;;;;;;;17.50;11.27;;;19.10;99.90;;;;;;5001015;28;20239;-67
2021/06/06 06:04:59;;;;;;;15.50;9.65;;;19.10;99.90;;;;;;5004958;28;20188;-67
2021/06/06 06:07:24;;;;;;;16.05;10.30;;;19.00;99.90;;;;;;5004319;28;20203;-66
2021/06/06 06:09:50;;;;;;;13.27;9.25;;;19.00;99.90;;;;;;4996510;28;20322;-68
2021/06/06 06:12:15;;;;;;;17.90;10.35;;;19.00;99.90;;;;;;4999751;28;20211;-67
2021/06/06 06:14:41;;;;;;;19.38;12.32;;;19.00;99.90;;;;;;5003024;28;20478;-68
2021/06/06 06:17:07;;;;;;;20.92;12.45;;;18.80;99.90;;;;;;5003116;28;20184;-67
2021/06/06 06:19:32;;;;;;;23.50;13.45;;;18.70;99.90;;;;;;5004240;28;20287;-65
2021/06/06 06:21:58;;;;;;;23.40;13.07;;;18.60;99.90;;;;;;5003292;28;20688;-65
2021/06/06 06:24:24;;;;;;;24.38;13.60;;;18.60;99.90;;;;;;5004184;28;20725;-65
2021/06/06 06:26:49;;;;;;;21.38;12.85;;;18.50;99.90;;;;;;5003905;28;20179;-67
2021/06/06 06:29:15;;;;;;;24.73;12.63;;;18.40;99.90;;;;;;5003611;28;20241;-67
2021/06/06 06:31:41;;;;;;;24.35;13.63;;;18.50;99.90;;;;;;5003286;28;20203;-68
2021/06/06 06:34:07;;;;;;;20.50;13.35;;;18.40;99.90;;;;;;5003710;28;20207;-66
2021/06/06 06:36:33;;;;;;;24.52;12.93;;;18.30;99.90;;;;;;5004267;28;20302;-65
2021/06/06 06:38:59;;;;;;;22.92;13.75;;;18.30;99.90;;;;;;5003513;28;20580;-66
2021/06/06 06:41:28;;;;;;;24.83;12.75;;;18.40;99.90;;;;;;5003582;28;20210;-68
2021/06/06 06:43:54;;;;;;;21.63;12.25;;;18.40;99.90;;;;;;5004430;28;20564;-67
2021/06/06 06:46:21;;;;;;;23.75;12.80;;;18.30;99.90;;;;;;5003757;28;20710;-67
2021/06/06 06:48:47;;;;;;;22.00;11.63;;;18.30;99.90;;;;;;5003810;28;20647;-65
2021/06/06 06:51:14;;;;;;;22.42;12.82;;;18.40;99.90;;;;;;5003283;28;20184;-67
2021/06/06 06:53:40;;;;;;;26.50;13.13;;;18.40;99.90;;;;;;5004288;28;20205;-66
2021/06/06 06:56:05;;;;;;;23.58;14.00;;;18.30;99.90;;;;;;5004271;28;20179;-67
2021/06/06 06:58:31;;;;;;;24.10;12.55;;;18.30;99.90;;;;;;5002506;28;20215;-68
2021/06/06 07:00:57;;;;;;;23.25;12.52;;;18.20;99.90;;;;;;5003466;28;20188;-70
2021/06/06 07:03:29;;;;;;;23.50;12.32;;;18.20;99.90;;;;;;5004453;28;20210;-68
2021/06/06 07:05:56;;;;;;;24.83;13.32;;;18.10;99.90;;;;;;5003954;28;20674;-69
2021/06/06 07:08:25;;;;;;;19.20;11.55;;;18.10;99.90;;;;;;5004228;28;20203;-68
2021/06/06 07:10:51;;;;;;;17.55;10.20;;;18.10;99.90;;;;;;5003604;28;20682;-67
2021/06/06 07:13:17;;;;;;;19.17;11.10;;;18.10;99.90;;;;;;5005064;28;20195;-65
2021/06/06 07:15:43;;;;;;;17.23;10.40;;;18.10;99.90;;;;;;5007746;28;20262;-69
2021/06/06 07:18:13;;;;;;;18.70;11.48;;;18.00;99.90;;;;;;5007081;28;20274;-67
2021/06/06 07:20:40;;;;;;;18.60;11.25;;;18.10;99.90;;;;;;5007827;28;20188;-66
2021/06/06 07:23:09;;;;;;;21.73;11.15;;;18.20;99.90;;;;;;5006711;28;20234;-66
2021/06/06 07:25:35;;;;;;;16.55;10.32;;;18.30;99.90;;;;;;4989085;28;20727;-67
2021/06/06 07:28:02;;;;;;;16.77;9.93;;;18.20;99.90;;;;;;5016102;28;20698;-67
2021/06/06 07:30:38;;;;;;;16.48;11.20;;;18.30;99.90;;;;;;5007575;28;20188;-66
2021/06/06 07:33:05;;;;;;;18.38;10.75;;;18.30;99.90;;;;;;5005868;28;20570;-69
2021/06/06 07:35:32;;;;;;;20.55;10.98;;;18.40;99.90;;;;;;5008331;28;20183;-68
2021/06/06 07:37:59;;;;;;;14.95;9.38;;;18.40;99.90;;;;;;5008098;28;20183;-65
2021/06/06 07:40:27;;;;;;;18.80;11.07;;;18.30;99.90;;;;;;5007753;28;20249;-65
2021/06/06 07:42:53;;;;;;;16.80;10.73;;;18.40;99.90;;;;;;5006446;28;20210;-65
2021/06/06 07:45:21;;;;;;;14.45;9.10;;;18.50;99.90;;;;;;5007168;28;20199;-67
2021/06/06 07:47:47;;;;;;;14.90;9.02;;;18.50;99.90;;;;;;5001606;28;20184;-67
2021/06/06 07:50:19;;;;;;;17.88;9.55;;;18.50;99.90;;;;;;5006491;28;20199;-65
2021/06/06 07:52:45;;;;;;;17.23;9.57;;;18.50;99.90;;;;;;5005791;28;20580;-67
2021/06/06 07:55:21;;;;;;;15.93;8.82;;;18.50;99.90;;;;;;5006815;28;20198;-66
2021/06/06 07:57:47;;;;;;;17.60;10.65;;;18.60;99.90;;;;;;5006114;28;20191;-68
2021/06/06 08:00:17;;;;;;;17.92;9.13;;;18.60;99.90;;;;;;5007101;28;20204;-68
2021/06/06 08:02:43;;;;;;;13.13;8.02;;;18.60;99.90;;;;;;5004944;28;20351;-70
2021/06/06 08:05:09;;;;;;;16.00;9.02;;;18.50;99.90;;;;;;5006311;28;20508;-69
2021/06/06 08:07:35;;;;;;;15.35;9.40;;;18.60;99.90;;;;;;5004448;28;20180;-65
2021/06/06 08:10:02;;;;;;;17.42;9.45;;;18.60;99.90;;;;;;5006732;28;20206;-68
2021/06/06 08:12:28;;;;;;;16.38;9.55;;;18.60;99.90;;;;;;5005841;28;20192;-65
2021/06/06 08:14:54;;;;;;;16.27;9.07;;;18.70;99.90;;;;;;5007222;28;20182;-66
2021/06/06 08:17:20;;;;;;;15.07;10.05;;;18.60;99.90;;;;;;5006014;28;20186;-68
2021/06/06 08:19:46;;;;;;;18.75;9.23;;;18.70;99.90;;;;;;5006570;28;20222;-66
2021/06/06 08:22:12;;;;;;;14.25;9.02;;;18.70;99.90;;;;;;5005330;28;20623;-67
2021/06/06 08:24:38;;;;;;;16.25;8.95;;;18.70;99.90;;;;;;5005679;28;20218;-64
2021/06/06 08:27:05;;;;;;;14.98;9.05;;;18.70;99.90;;;;;;5006262;28;20183;-66
2021/06/06 08:29:31;;;;;;;16.75;9.70;;;18.50;99.90;;;;;;5006282;28;20218;-65
2021/06/06 08:31:58;;;;;;;13.73;8.88;;;18.50;99.90;;;;;;5005496;28;20652;-68
2021/06/06 08:34:24;;;;;;;15.25;8.68;;;18.40;99.90;;;;;;5006397;28;20183;-65
2021/06/06 08:36:50;;;;;;;16.27;9.65;;;18.40;99.90;;;;;;5006052;28;20210;-66
2021/06/06 08:39:24;;;;;;;15.48;9.27;;;18.50;99.90;;;;;;5006052;28;20687;-68
2021/06/06 08:42:05;;;;;;;17.38;9.50;;;18.70;99.90;;;;;;5004906;28;20564;-67
2021/06/06 08:44:35;;;;;;;17.33;9.35;;;18.70;99.90;;;;;;5006142;28;20214;-67
2021/06/06 08:47:31;;;;;;;14.55;8.35;;;18.70;99.90;;;;;;5005200;28;20221;-67
2021/06/06 08:50:09;;;;;;;18.48;9.93;;;18.80;99.90;;;;;;5005797;28;20571;-66
2021/06/06 08:52:45;;;;;;;15.73;9.93;;;18.90;99.90;;;;;;5005330;28;20183;-66
2021/06/06 08:55:37;;;;;;;18.88;10.35;;;18.90;99.90;;;;;;5005974;28;20175;-66
2021/06/06 08:58:12;;;;;;;17.75;10.65;;;19.00;99.90;;;;;;5005625;28;20267;-66
2021/06/06 09:00:42;;;;;;;14.63;9.25;;;19.00;99.90;;;;;;5005188;28;20183;-68
2021/06/06 09:03:13;;;;;;;15.73;10.48;;;19.10;99.90;;;;;;5004665;28;20638;-68
2021/06/06 09:05:42;;;;;;;15.50;9.23;;;19.10;99.90;;;;;;5005362;28;20648;-65
2021/06/06 09:08:16;;;;;;;11.63;8.48;;;19.30;99.90;;;;;;5004777;28;20210;-68
2021/06/06 09:10:47;;;;;;;13.30;9.13;;;19.40;99.90;;;;;;5005013;28;20175;-67
2021/06/06 09:13:14;;;;;;;17.17;9.93;;;19.50;99.90;;;;;;5004241;28;20693;-65
2021/06/06 09:15:40;;;;;;;14.00;9.25;;;19.50;99.90;;;;;;5004175;28;20294;-66
2021/06/06 09:18:22;;;;;;;13.98;9.95;;;19.40;99.90;;;;;;5003046;28;20187;-68
2021/06/06 09:20:49;;;;;;;15.23;8.93;;;19.30;99.90;;;;;;5004131;28;20179;-66
2021/06/06 09:23:21;;;;;;;15.98;9.70;;;19.40;99.90;;;;;;5002963;28;20731;-68
2021/06/06 09:25:59;;;;;;;15.10;9.10;;;19.40;99.90;;;;;;5020889;28;20666;-67
2021/06/06 09:28:29;;;;;;;15.43;9.18;;;19.40;99.90;;;;;;5005548;28;20242;-67
2021/06/06 09:31:19;;;;;;;13.57;8.60;;;19.30;99.90;;;;;;5005314;28;20247;-68
2021/06/06 09:33:48;;;;;;;18.15;8.60;;;19.30;99.90;;;;;;5005683;28;20741;-68
2021/06/06 09:36:22;;;;;;;14.68;9.80;;;19.30;99.90;;;;;;5005262;28;20183;-68
2021/06/06 09:38:52;;;;;;;12.95;9.05;;;19.40;99.90;;;;;;5005254;28;21171;-67
2021/06/06 09:41:40;;;;;;;15.73;8.80;;;19.40;99.90;;;;;;5003737;28;20640;-67
2021/06/06 09:44:14;;;;;;;13.68;9.18;;;19.30;99.90;;;;;;5004994;28;20294;-67
2021/06/06 09:46:51;;;;;;;13.18;8.93;;;19.20;99.90;;;;;;5005292;28;20244;-66
2021/06/06 09:49:26;;;;;;;14.13;9.18;;;19.20;99.90;;;;;;5005157;28;20694;-67
2021/06/06 09:51:54;;;;;;;13.80;9.30;;;19.30;99.90;;;;;;5004549;28;20179;-66
2021/06/06 09:54:33;;;;;;;11.55;8.02;;;19.40;99.90;;;;;;5005229;28;20219;-66
2021/06/06 09:57:06;;;;;;;12.32;8.35;;;19.40;99.90;;;;;;5004546;28;20195;-67
2021/06/06 09:59:37;;;;;;;13.52;8.30;;;19.30;99.90;;;;;;5005039;28;20221;-68
2021/06/06 10:02:25;;;;;;;13.25;8.65;;;19.30;99.90;;;;;;5004037;28;20238;-68
2021/06/06 10:05:11;;;;;;;11.55;7.72;;;19.30;99.90;;;;;;4997745;28;20206;-66
2021/06/06 10:07:44;;;;;;;14.52;8.35;;;19.20;99.90;;;;;;5004624;28;20190;-67
2021/06/06 10:10:18;;;;;;;14.30;9.20;;;19.10;99.90;;;;;;5005042;28;20686;-66
2021/06/06 10:12:48;;;;;;;12.15;7.97;;;19.10;99.90;;;;;;5004559;28;20182;-67
2021/06/06 10:15:18;;;;;;;15.52;9.27;;;19.00;99.90;;;;;;5005257;28;20205;-67
2021/06/06 10:17:59;;;;;;;10.73;8.23;;;18.80;99.90;;;;;;5004986;28;20201;-66
2021/06/06 10:20:30;;;;;;;11.98;8.70;;;18.90;99.90;;;;;;5005828;28;20183;-65
2021/06/06 10:23:04;;;;;;;12.48;8.05;;;18.70;99.90;;;;;;5003501;28;20270;-68
2021/06/06 10:25:50;;;;;;;9.85;7.68;;;18.70;99.90;;;;;;5005002;28;20175;-67
2021/06/06 10:28:23;;;;;;;10.90;7.95;;;18.80;99.90;;;;;;5004416;28;20203;-68
2021/06/06 10:31:02;;;;;;;11.32;7.95;;;18.90;99.90;;;;;;5004199;28;20201;-68
2021/06/06 10:33:38;;;;;;;12.05;8.10;;;18.90;99.90;;;;;;5004444;28;20185;-66
2021/06/06 10:36:04;;;;;;;13.85;8.27;;;19.00;99.90;;;;;;5004703;28;20321;-66
2021/06/06 10:38:33;;;;;;;11.20;7.93;;;19.00;99.90;;;;;;4999867;28;20261;-66
2021/06/06 10:41:09;;;;;;;11.38;8.07;;;19.00;99.90;;;;;;4999483;28;20537;-68
2021/06/06 10:44:19;;;;;;;12.85;7.85;;;19.00;99.90;;;;;;5003314;28;20206;-68
2021/06/06 10:46:49;;;;;;;10.88;7.85;;;19.00;99.90;;;;;;5000280;28;20235;-65
2021/06/06 10:49:23;;;;;;;11.13;7.53;;;19.00;99.90;;;;;;5006979;28;20227;-66
2021/06/06 10:52:04;;;;;;;11.70;7.47;;;19.10;99.90;;;;;;5006483;28;20178;-66
2021/06/06 10:54:45;;;;;;;11.13;7.72;;;19.10;99.90;;;;;;4997229;28;20203;-65
2021/06/06 10:57:25;;;;;;;9.80;7.25;;;19.20;99.90;;;;;;5004308;28;20522;-65
2021/06/06 11:00:25;;;;;;;9.18;6.75;;;19.30;99.90;;;;;;5007623;28;20758;-65
2021/06/06 11:02:54;;;;;;;9.25;6.65;;;19.30;99.90;;;;;;5006456;28;20219;-65
2021/06/06 11:05:43;;;;;;;9.55;6.70;;;19.30;99.90;;;;;;5007667;28;20534;-65
2021/06/06 11:08:17;;;;;;;10.18;7.75;;;19.40;99.90;;;;;;5007041;28;20258;-64
2021/06/06 11:10:44;;;;;;;10.57;7.35;;;19.50;99.90;;;;;;5007164;28;20207;-66
2021/06/06 11:13:35;;;;;;;8.38;6.18;;;19.50;99.90;;;;;;5006881;28;20187;-64
2021/06/06 11:16:18;;;;;;;13.50;8.20;;;19.60;99.90;;;;;;5007573;28;20187;-66
2021/06/06 11:18:52;;;;;;;7.97;6.40;;;19.70;99.90;;;;;;5006965;28;20231;-65
2021/06/06 11:21:30;;;;;;;11.52;7.32;;;19.60;99.90;;;;;;5006797;28;20218;-67
2021/06/06 11:23:59;;;;;;;11.13;7.10;;;19.50;99.90;;;;;;5007855;28;20214;-65
2021/06/06 11:26:44;;;;;;;9.75;7.65;;;19.50;99.90;;;;;;5007738;28;20183;-67
2021/06/06 11:29:12;;;;;;;8.15;6.13;;;19.50;99.90;;;;;;5007451;28;20262;-64
2021/06/06 11:31:58;;;;;;;7.93;6.22;;;19.50;99.90;;;;;;5007048;28;20179;-65
2021/06/06 11:34:33;;;;;;;9.68;6.78;;;19.50;99.90;;;;;;5007752;28;20175;-64
2021/06/06 11:37:05;;;;;;;10.15;7.53;;;19.50;99.90;;;;;;5006994;28;20184;-67
2021/06/06 11:39:37;;;;;;;10.15;6.82;;;19.50;99.90;;;;;;5007094;28;20203;-66
2021/06/06 11:42:17;;;;;;;10.05;6.57;;;19.50;99.90;;;;;;5005878;28;20187;-67
2021/06/06 11:44:53;;;;;;;10.23;6.82;;;19.60;99.90;;;;;;5006988;28;20242;-67
2021/06/06 11:47:31;;;;;;;9.40;7.10;;;19.60;99.90;;;;;;5004864;28;20198;-66
2021/06/06 11:50:01;;;;;;;9.07;6.97;;;19.60;99.90;;;;;;5006927;28;20199;-67
2021/06/06 11:52:52;;;;;;;10.32;6.97;;;19.60;99.90;;;;;;5005768;28;20179;-66
2021/06/06 11:55:41;;;;;;;9.63;7.07;;;19.60;99.90;;;;;;5014425;28;20203;-66
2021/06/06 11:58:09;;;;;;;7.75;6.30;;;19.70;99.90;;;;;;5006422;28;20176;-66
2021/06/06 12:00:45;;;;;;;11.68;7.57;;;19.70;99.90;;;;;;5007241;28;20184;-66
2021/06/06 12:03:18;;;;;;;10.02;7.45;;;19.80;99.90;;;;;;5010619;28;20262;-64
2021/06/06 12:06:03;;;;;;;8.80;6.95;;;19.80;99.90;;;;;;5007668;28;20207;-64
2021/06/06 12:08:32;;;;;;;9.88;7.00;;;19.90;99.90;;;;;;5006652;28;20210;-66
2021/06/06 12:11:05;;;;;;;9.52;6.97;;;20.00;99.90;;;;;;5005576;28;20688;-64
2021/06/06 12:13:38;;;;;;;9.48;7.07;;;20.00;99.90;;;;;;5006785;28;20212;-68
2021/06/06 12:16:12;;;;;;;11.25;6.78;;;20.00;99.90;;;;;;5006946;28;20187;-69
2021/06/06 12:18:40;;;;;;;9.77;7.07;;;20.10;99.90;;;;;;5006472;28;20693;-66
2021/06/06 12:21:18;;;;;;;9.27;6.72;;;20.00;99.90;;;;;;5005822;28;20215;-66
2021/06/06 12:23:50;;;;;;;9.52;7.10;;;20.00;99.90;;;;;;5004577;28;20211;-69
2021/06/06 12:26:29;;;;;;;9.23;6.32;;;19.90;99.90;;;;;;5006503;28;20191;-69
2021/06/06 12:28:57;;;;;;;8.05;6.03;;;19.70;99.90;;;;;;5005949;28;20235;-66
2021/06/06 12:31:38;;;;;;;9.27;6.90;;;19.60;99.90;;;;;;5005815;28;20202;-68
2021/06/06 12:34:20;;;;;;;10.57;7.30;;;19.60;99.90;;;;;;5006281;28;20198;-67
2021/06/06 12:36:47;;;;;;;13.32;8.32;;;19.60;99.90;;;;;;5006549;28;20195;-68
2021/06/06 12:39:17;;;;;;;11.00;7.68;;;19.50;99.90;;;;;;5005691;28;20203;-66
2021/06/06 12:41:46;;;;;;;9.75;7.07;;;19.60;99.90;;;;;;5005866;28;20652;-69
2021/06/06 12:44:14;;;;;;;10.65;7.97;;;19.60;99.90;;;;;;5005709;28;20214;-65
2021/06/06 12:46:51;;;;;;;9.50;7.75;;;19.60;99.90;;;;;;5006430;28;20199;-67
2021/06/06 12:49:39;;;;;;;9.73;8.23;;;19.60;99.90;;;;;;5005926;28;20203;-65
2021/06/06 12:52:38;;;;;;;11.13;8.68;;;19.60;99.90;;;;;;5005311;28;20233;-67
2021/06/06 12:55:16;;;;;;;11.57;7.95;;;19.70;99.90;;;;;;4998776;28;20227;-67
2021/06/06 12:57:52;;;;;;;10.32;7.40;;;19.80;99.90;;;;;;5005858;28;20278;-68
2021/06/06 13:00:46;;;;;;;10.93;7.50;;;19.90;99.90;;;;;;5006123;28;20705;-67